Time;durP1;ratioP1;P1;durP2;ratioP2;P2;SDS_P1;SDS_P2;PMS_P1;PMS_P2;Temp;Humidity;BMP_temperature;BMP_pressure;BME280_temperature;BME280_humidity;BME280_pressure;Samples;Min_cycle;Max_cycle;Signal;HPM_P1;HPM_P2
2022/01/30 00:00:21;;;;;;;8.70;5.10;;;;;;;-1.95;55.40;100575.92;117211;1182;23481;-65
2022/01/30 00:02:51;;;;;;;10.10;5.10;;;;;;;-1.94;55.37;100572.18;117287;1186;21994;-51
2022/01/30 00:05:20;;;;;;;;;;;;;;;-1.95;55.41;100565.80;117093;1185;21843;-65
2022/01/30 00:07:48;;;;;;;10.10;5.30;;;;;;;-1.96;55.30;100557.50;117042;1187;23526;-64
2022/01/30 00:10:17;;;;;;;11.40;5.20;;;;;;;-1.98;55.56;100545.03;117193;1186;21863;-64
2022/01/30 00:12:57;;;;;;;8.00;4.00;;;;;;;-1.97;55.53;100540.96;117235;1185;23453;-65
2022/01/30 00:15:39;;;;;;;11.20;5.70;;;;;;;-1.96;55.30;100535.68;117238;1185;22619;-66
2022/01/30 00:24:05;;;;;;;8.10;5.30;;;;;;;-2.00;55.38;100530.83;117069;1185;23441;-65
2022/01/30 00:26:36;;;;;;;9.00;4.50;;;;;;;-2.02;55.37;100529.03;117282;1185;21854;-64
2022/01/30 00:29:04;;;;;;;6.80;3.70;;;;;;;-2.06;55.32;100521.99;117200;1186;22927;-64
2022/01/30 00:31:34;;;;;;;7.70;4.40;;;;;;;-2.09;55.34;100512.77;117332;1178;21872;-55
2022/01/30 00:34:23;;;;;;;8.90;4.80;;;;;;;-2.10;55.39;100509.14;117212;1186;23551;-64
2022/01/30 00:36:51;;;;;;;8.40;4.60;;;;;;;-2.11;55.37;100502.04;117233;1185;23180;-64
2022/01/30 00:39:19;;;;;;;9.60;4.60;;;;;;;-2.09;55.37;100498.50;117347;1179;23474;-65
2022/01/30 00:41:47;;;;;;;12.90;5.30;;;;;;;-2.10;55.45;100497.41;117273;1183;21937;-50
2022/01/30 00:44:17;;;;;;;8.10;4.30;;;;;;;-2.10;55.44;100476.80;117323;1185;23464;-49
2022/01/30 00:46:46;;;;;;;10.00;4.70;;;;;;;-2.12;55.35;100464.33;117325;1185;21856;-50
2022/01/30 00:49:14;;;;;;;9.10;4.50;;;;;;;-2.13;55.39;100456.71;117297;1185;22986;-50
2022/01/30 00:51:42;;;;;;;10.40;4.90;;;;;;;-2.14;55.43;100458.59;117129;1184;21897;-49
2022/01/30 00:54:10;;;;;;;9.70;4.70;;;;;;;-2.15;55.39;100454.06;117204;1185;21872;-49
2022/01/30 00:56:41;;;;;;;8.80;4.30;;;;;;;-2.18;55.45;100449.80;117063;1188;23241;-63
2022/01/30 00:59:10;;;;;;;10.30;4.40;;;;;;;-2.20;55.34;100446.27;117371;1182;23500;-49
2022/01/30 01:01:38;;;;;;;9.10;4.20;;;;;;;-2.23;55.50;100435.18;117346;1184;22828;-65
2022/01/30 01:04:07;;;;;;;11.20;4.90;;;;;;;-2.25;55.22;100426.33;117239;1186;21895;-49
2022/01/30 01:06:37;;;;;;;8.80;4.60;;;;;;;-2.28;55.27;100417.77;117288;1178;21860;-65
2022/01/30 01:09:06;;;;;;;10.30;4.90;;;;;;;-2.29;55.28;100415.68;117237;1186;23476;-51
2022/01/30 01:25:11;;;;;;;9.00;4.70;;;;;;;-2.43;55.32;100375.59;117283;1186;23475;-50
2022/01/30 01:27:40;;;;;;;10.10;5.20;;;;;;;-2.43;55.30;100367.34;117255;1186;21955;-50
2022/01/30 01:30:09;;;;;;;11.10;5.20;;;;;;;-2.42;55.53;100357.92;117263;1181;23449;-58
2022/01/30 01:32:37;;;;;;;9.40;4.80;;;;;;;-2.37;55.64;100348.14;117300;1182;22704;-51
2022/01/30 01:35:13;;;;;;;11.70;4.90;;;;;;;-2.32;55.41;100335.98;117284;1182;23475;-64
2022/01/30 01:37:42;;;;;;;12.00;6.20;;;;;;;-2.28;55.53;100334.08;117355;1176;24218;-65
2022/01/30 01:40:11;;;;;;;12.60;5.70;;;;;;;-2.25;55.53;100324.05;117231;1184;23476;-64
2022/01/30 01:42:39;;;;;;;12.00;6.30;;;;;;;-2.21;55.57;100316.11;117344;1183;22927;-50
2022/01/30 01:45:08;;;;;;;13.10;6.20;;;;;;;-2.20;55.38;100313.06;117105;1185;21862;-65
2022/01/30 01:47:37;;;;;;;10.40;5.20;;;;;;;-2.19;55.42;100304.50;117170;1188;21866;-65
2022/01/30 01:50:05;;;;;;;9.60;5.80;;;;;;;-2.20;55.48;100303.08;117252;1186;23448;-65
2022/01/30 01:52:33;;;;;;;13.30;5.90;;;;;;;-2.18;55.61;100293.67;117223;1183;23599;-49
2022/01/30 01:55:06;;;;;;;12.40;6.60;;;;;;;-2.18;55.40;100293.89;117309;1186;22104;-62
2022/01/30 01:57:35;;;;;;;11.00;6.40;;;;;;;-2.16;55.36;100287.26;117322;1184;23639;-66
2022/01/30 02:00:05;;;;;;;10.90;6.10;;;;;;;-2.15;55.28;100286.27;117260;1186;23481;-66
2022/01/30 02:02:34;;;;;;;8.50;4.60;;;;;;;-2.16;55.36;100282.92;117057;1188;21862;-51
2022/01/30 02:05:04;;;;;;;11.90;6.30;;;;;;;-2.22;55.16;100280.14;117309;1185;21858;-51
2022/01/30 02:10:06;;;;;;;10.80;6.40;;;;;;;-2.39;55.12;100264.37;117367;1182;24699;-53
2022/01/30 02:12:45;;;;;;;10.70;5.80;;;;;;;-2.48;55.10;100263.21;117306;1182;23444;-51
2022/01/30 02:26:24;;;;;;;12.20;6.30;;;;;;;-2.77;55.20;100216.90;117272;1185;22360;-55
2022/01/30 02:28:55;;;;;;;11.80;5.80;;;;;;;-2.72;55.46;100216.89;117226;1186;21848;-66
2022/01/30 02:31:23;;;;;;;12.70;5.90;;;;;;;-2.68;55.33;100214.17;117398;1179;23577;-51
2022/01/30 02:33:52;;;;;;;12.30;5.90;;;;;;;-2.62;55.39;100213.16;117107;1178;21859;-65
2022/01/30 02:36:20;;;;;;;11.50;5.60;;;;;;;-2.53;55.49;100214.52;117350;1185;21902;-52
2022/01/30 02:38:49;;;;;;;9.60;5.50;;;;;;;-2.45;55.68;100210.20;117310;1185;23504;-66
2022/01/30 02:41:17;;;;;;;12.10;5.80;;;;;;;-2.37;55.55;100213.24;117352;1185;22902;-51
2022/01/30 02:43:57;;;;;;;12.90;7.20;;;;;;;-2.32;55.56;100208.80;117248;1183;23515;-66
2022/01/30 02:46:32;;;;;;;11.40;6.40;;;;;;;-2.29;55.48;100204.25;117277;1185;21857;-65
2022/01/30 02:49:12;;;;;;;13.00;6.50;;;;;;;-2.26;55.55;100199.91;117218;1182;23456;-66
2022/01/30 02:51:48;;;;;;;12.20;5.80;;;;;;;-2.23;55.72;100193.29;117217;1179;21862;-66
2022/01/30 02:54:16;;;;;;;9.90;5.80;;;;;;;-2.20;55.52;100189.27;117235;1176;21867;-51
2022/01/30 02:56:44;;;;;;;9.20;5.00;;;;;;;-2.16;55.63;100182.02;117301;1182;23449;-51
2022/01/30 02:59:13;;;;;;;9.40;5.10;;;;;;;-2.13;55.34;100174.77;117322;1182;21863;-63
2022/01/30 03:01:41;;;;;;;10.10;5.90;;;;;;;-2.08;55.55;100162.36;117333;1185;22880;-51
2022/01/30 03:04:10;;;;;;;10.40;5.20;;;;;;;-2.07;55.60;100159.31;117342;1185;21862;-66
2022/01/30 03:06:38;;;;;;;11.00;5.80;;;;;;;-2.06;55.62;100152.46;117233;1185;23448;-52
2022/01/30 03:09:08;;;;;;;13.20;6.90;;;;;;;-2.04;55.65;100144.79;117259;1185;24142;-51
2022/01/30 03:11:36;;;;;;;10.00;5.30;;;;;;;-2.03;55.69;100147.93;117166;1186;21862;-51
2022/01/30 03:14:05;;;;;;;10.50;5.90;;;;;;;-2.03;55.54;100144.51;117290;1183;23526;-60
2022/01/30 03:16:33;;;;;;;9.60;5.30;;;;;;;-2.02;55.56;100136.63;117102;1182;22619;-51
2022/01/30 03:19:02;;;;;;;12.00;5.60;;;;;;;-2.00;55.60;100129.81;117241;1183;23523;-66
2022/01/30 03:21:31;;;;;;;11.50;6.70;;;;;;;-1.98;55.67;100118.38;117097;1186;21845;-66
2022/01/30 03:23:59;;;;;;;10.20;5.40;;;;;;;-1.95;55.68;100105.02;117289;1182;24243;-66
2022/01/30 03:26:29;;;;;;;12.30;5.80;;;;;;;-1.94;55.51;100099.40;117242;1182;22762;-51
2022/01/30 03:29:04;;;;;;;11.00;6.00;;;;;;;-1.94;55.44;100093.02;117316;1182;21864;-51
2022/01/30 03:31:34;;;;;;;11.30;5.70;;;;;;;-1.96;55.51;100086.80;117312;1185;21859;-51
2022/01/30 03:34:03;;;;;;;11.60;5.60;;;;;;;-1.95;55.47;100078.38;117333;1185;21859;-66
2022/01/30 03:36:31;;;;;;;13.50;5.50;;;;;;;-1.98;55.36;100070.19;117223;1186;23574;-51
2022/01/30 03:38:59;;;;;;;8.10;5.00;;;;;;;-2.03;55.46;100069.52;117315;1182;21903;-51
2022/01/30 03:41:28;;;;;;;8.60;4.90;;;;;;;-2.04;55.36;100072.94;117267;1185;23450;-52
2022/01/30 03:43:56;;;;;;;10.00;5.30;;;;;;;-2.03;55.62;100071.92;117110;1182;24173;-66
2022/01/30 03:46:25;;;;;;;10.20;5.40;;;;;;;-2.03;55.53;100066.25;117280;1179;21856;-50
2022/01/30 03:49:14;;;;;;;9.60;5.00;;;;;;;-2.03;55.47;100051.47;117265;1183;23519;-66
2022/01/30 03:51:42;;;;;;;9.80;5.10;;;;;;;-2.02;55.62;100044.61;117224;1180;21856;-51
2022/01/30 03:54:10;;;;;;;9.90;6.00;;;;;;;-2.00;55.60;100032.99;117233;1185;23498;-67
2022/01/30 03:56:38;;;;;;;11.00;5.70;;;;;;;-1.96;55.75;100026.95;117348;1181;24155;-55
2022/01/30 03:59:07;;;;;;;9.70;5.40;;;;;;;-1.90;55.69;100019.04;117223;1183;23526;-50
2022/01/30 04:01:35;;;;;;;9.60;5.00;;;;;;;-1.84;55.81;100017.87;117206;1186;22520;-66
2022/01/30 04:04:03;;;;;;;10.60;5.60;;;;;;;-1.75;55.77;100010.73;117275;1185;21849;-66
2022/01/30 04:06:32;;;;;;;9.10;5.40;;;;;;;-1.69;55.69;99999.23;117141;1182;23452;-51
2022/01/30 04:09:03;;;;;;;8.20;4.90;;;;;;;-1.64;55.88;99992.32;117232;1185;23551;-51
2022/01/30 04:11:42;;;;;;;9.00;5.10;;;;;;;-1.58;56.00;99981.87;117291;1180;24497;-51
2022/01/30 04:14:11;;;;;;;9.70;5.20;;;;;;;-1.53;55.98;99977.86;117240;1185;23006;-66
2022/01/30 04:16:40;;;;;;;11.10;5.70;;;;;;;-1.48;55.88;99971.28;117249;1179;23473;-66
2022/01/30 04:19:08;;;;;;;8.60;5.10;;;;;;;-1.44;55.87;99964.87;117281;1184;23451;-66
2022/01/30 04:21:38;;;;;;;9.50;5.50;;;;;;;-1.39;55.83;99964.52;117346;1182;23078;-66
2022/01/30 04:24:06;;;;;;;9.60;5.80;;;;;;;-1.34;55.92;99965.70;117209;1186;21884;-66
2022/01/30 04:26:36;;;;;;;8.40;4.80;;;;;;;-1.29;55.75;99954.62;117091;1188;24233;-65
2022/01/30 04:29:05;;;;;;;11.10;5.50;;;;;;;-1.27;55.69;99952.12;117389;1185;22861;-66
2022/01/30 04:31:33;;;;;;;9.90;6.10;;;;;;;-1.26;55.54;99950.93;117064;1186;21856;-50
2022/01/30 04:34:02;;;;;;;11.30;6.10;;;;;;;-1.27;55.80;99947.30;117078;1188;23699;-66
2022/01/30 04:36:37;;;;;;;10.00;6.00;;;;;;;-1.28;55.67;99944.00;117102;1185;23451;-65
2022/01/30 04:42:05;;;;;;;13.30;6.50;;;;;;;-1.30;55.69;99936.04;117353;1182;23450;-64
2022/01/30 04:53:20;;;;;;;14.70;8.60;;;;;;;-1.39;55.57;99936.98;117120;1185;22894;-51
2022/01/30 05:06:02;;;;;;;13.50;8.20;;;;;;;-1.19;55.77;99897.93;117190;1186;22926;-64
2022/01/30 05:08:30;;;;;;;14.90;7.70;;;;;;;-1.11;56.21;99893.16;117287;1185;22882;-49
2022/01/30 05:11:04;;;;;;;18.20;10.00;;;;;;;-1.00;55.90;99888.98;117207;1186;21915;-48
2022/01/30 05:13:35;;;;;;;14.50;8.30;;;;;;;-0.89;55.83;99883.58;117308;1182;21991;-64
2022/01/30 05:16:04;;;;;;;12.60;7.70;;;;;;;-0.80;56.10;99875.54;117306;1185;23497;-49
2022/01/30 05:18:33;;;;;;;14.10;7.70;;;;;;;-0.71;56.21;99876.45;117327;1185;23658;-49
2022/01/30 05:21:01;;;;;;;46.00;21.80;;;;;;;-0.64;56.02;99870.42;117383;1182;23503;-51
2022/01/30 05:23:30;;;;;;;28.30;13.70;;;;;;;-0.57;55.95;99867.32;117320;1178;21869;-66
2022/01/30 05:25:58;;;;;;;19.30;11.00;;;;;;;-0.52;56.07;99858.65;117239;1185;22822;-66
2022/01/30 05:28:27;;;;;;;26.60;13.40;;;;;;;-0.46;56.02;99847.60;117091;1186;23582;-65
2022/01/30 05:30:56;;;;;;;36.30;18.60;;;;;;;-0.39;55.95;99849.98;117321;1182;22541;-71
2022/01/30 05:33:25;;;;;;;28.00;14.40;;;;;;;-0.34;56.03;99848.76;117158;1186;21918;-74
2022/01/30 05:35:53;;;;;;;23.90;12.60;;;;;;;-0.25;56.04;99849.12;117331;1182;24243;-48
2022/01/30 05:38:22;;;;;;;13.60;8.50;;;;;;;-0.18;56.14;99838.92;117330;1185;21850;-72
2022/01/30 05:40:51;;;;;;;18.00;10.20;;;;;;;-0.10;56.16;99831.00;117169;1183;22969;-48
2022/01/30 05:43:21;;;;;;;15.40;8.50;;;;;;;-0.02;56.16;99826.18;117304;1182;22792;-71
2022/01/30 05:45:55;;;;;;;13.10;7.20;;;;;;;0.05;56.20;99814.73;117306;1182;24177;-48
2022/01/30 05:48:24;;;;;;;14.40;8.00;;;;;;;0.11;56.23;99808.67;117082;1188;21865;-71
2022/01/30 05:50:53;;;;;;;13.80;7.10;;;;;;;0.17;55.91;99807.93;117294;1185;23386;-47
2022/01/30 05:53:21;;;;;;;13.50;7.90;;;;;;;0.22;56.17;99807.34;117355;1183;24172;-71
2022/01/30 05:55:50;;;;;;;13.80;8.90;;;;;;;0.27;56.41;99800.89;117211;1185;23451;-48
2022/01/30 05:58:18;;;;;;;17.40;9.30;;;;;;;0.32;56.10;99798.56;117214;1176;21850;-73
2022/01/30 06:00:46;;;;;;;16.20;8.50;;;;;;;0.36;55.99;99795.04;117331;1185;23449;-48
2022/01/30 06:03:15;;;;;;;27.80;13.90;;;;;;;0.40;56.39;99791.13;117307;1179;23878;-73
2022/01/30 06:05:46;;;;;;;22.00;10.30;;;;;;;0.44;56.14;99788.80;117166;1185;23474;-73
2022/01/30 06:08:38;;;;;;;28.50;14.80;;;;;;;0.49;56.29;99785.41;117119;1186;23463;-47
2022/01/30 06:11:08;;;;;;;24.80;12.60;;;;;;;0.55;56.30;99788.66;117331;1182;23455;-69
2022/01/30 06:13:36;;;;;;;25.80;12.20;;;;;;;0.61;56.27;99792.56;117293;1185;21848;-48
2022/01/30 06:16:05;;;;;;;18.80;10.20;;;;;;;0.66;56.24;99789.73;117220;1182;21834;-48
2022/01/30 06:18:34;;;;;;;25.20;12.40;;;;;;;0.71;56.44;99787.05;117350;1183;22935;-48
2022/01/30 06:21:02;;;;;;;16.90;9.50;;;;;;;0.76;56.28;99788.01;117315;1182;23553;-48
2022/01/30 06:23:30;;;;;;;12.90;7.60;;;;;;;0.81;56.16;99783.79;117128;1179;22623;-48
2022/01/30 06:25:59;;;;;;;17.90;9.90;;;;;;;0.86;56.16;99783.52;117211;1185;23517;-48
2022/01/30 06:28:27;;;;;;;12.60;7.40;;;;;;;0.89;55.92;99778.03;117295;1182;23586;-48
2022/01/30 06:30:56;;;;;;;11.70;6.50;;;;;;;0.93;56.10;99776.19;117295;1185;23485;-65
2022/01/30 06:33:24;;;;;;;11.50;7.10;;;;;;;0.96;56.10;99772.63;117235;1183;22927;-66
2022/01/30 06:35:53;;;;;;;12.10;6.90;;;;;;;0.98;56.41;99772.65;117203;1181;23547;-65
2022/01/30 06:38:21;;;;;;;11.00;6.80;;;;;;;1.02;56.13;99769.29;117141;1185;23579;-64
2022/01/30 06:40:50;;;;;;;15.00;9.00;;;;;;;1.05;55.97;99773.66;117114;1180;22919;-66
2022/01/30 06:43:18;;;;;;;26.00;10.50;;;;;;;1.08;56.16;99771.80;116960;1186;22010;-65
2022/01/30 06:45:48;;;;;;;14.00;7.50;;;;;;;1.11;56.08;99769.24;117325;1182;23455;-64
2022/01/30 06:48:19;;;;;;;23.70;10.70;;;;;;;1.12;56.04;99767.01;117396;1184;21912;-52
2022/01/30 06:50:49;;;;;;;26.20;10.80;;;;;;;1.13;56.28;99758.40;117095;1185;23824;-51
2022/01/30 06:53:17;;;;;;;14.30;7.80;;;;;;;1.19;56.18;99758.30;117201;1186;21868;-66
2022/01/30 06:55:46;;;;;;;18.50;9.40;;;;;;;1.18;56.35;99759.86;117140;1178;24233;-66
2022/01/30 06:58:15;;;;;;;23.80;10.70;;;;;;;1.18;56.04;99760.55;117293;1176;21888;-51
2022/01/30 07:00:45;;;;;;;17.70;9.90;;;;;;;1.18;56.16;99759.85;117158;1186;22885;-65
2022/01/30 07:03:14;;;;;;;;;;;;;;;1.18;55.99;99761.75;117101;1182;23474;-52
2022/01/30 07:05:43;;;;;;;12.30;7.10;;;;;;;1.16;56.19;99759.65;117151;1182;21858;-65
2022/01/30 07:08:12;;;;;;;13.50;7.90;;;;;;;1.14;56.07;99755.81;117153;1182;23293;-52
2022/01/30 07:10:41;;;;;;;10.30;6.70;;;;;;;1.13;56.15;99754.77;118595;1178;21881;-52
2022/01/30 07:13:12;;;;;;;13.20;7.30;;;;;;;1.13;55.89;99752.34;117095;1186;21886;-65
2022/01/30 07:15:41;;;;;;;10.90;6.80;;;;;;;1.12;56.07;99749.91;117031;1188;22630;-50
2022/01/30 07:18:10;;;;;;;17.40;7.20;;;;;;;1.12;56.07;99742.82;117062;1183;21919;-52
2022/01/30 07:20:38;;;;;;;12.60;7.00;;;;;;;1.13;55.81;99742.14;117102;1186;23558;-66
2022/01/30 07:23:07;;;;;;;15.60;7.60;;;;;;;1.11;56.21;99739.19;117116;1182;23454;-50
2022/01/30 07:25:35;;;;;;;13.10;7.40;;;;;;;1.07;56.29;99739.81;117026;1179;21893;-51
2022/01/30 07:28:04;;;;;;;12.20;6.80;;;;;;;1.04;56.10;99739.59;116868;1186;24189;-51
2022/01/30 07:30:32;;;;;;;10.10;6.00;;;;;;;1.01;56.11;99735.73;117134;1183;22937;-52
2022/01/30 07:33:01;;;;;;;14.70;8.50;;;;;;;0.99;56.03;99729.48;117139;1183;24170;-65
2022/01/30 07:35:30;;;;;;;13.70;7.70;;;;;;;0.98;55.97;99728.61;117099;1186;24161;-51
2022/01/30 07:37:58;;;;;;;11.60;7.40;;;;;;;0.98;56.07;99730.16;116989;1186;21868;-66
2022/01/30 07:40:26;;;;;;;13.80;9.10;;;;;;;0.97;56.24;99730.49;117105;1182;23494;-66
2022/01/30 07:42:55;;;;;;;11.60;7.00;;;;;;;0.98;56.19;99729.82;117058;1182;23530;-51
2022/01/30 07:45:24;;;;;;;18.90;9.50;;;;;;;0.99;55.75;99725.17;117027;1179;21856;-66
2022/01/30 07:47:53;;;;;;;19.70;9.90;;;;;;;1.01;56.25;99727.45;117040;1186;21906;-52
2022/01/30 07:50:21;;;;;;;14.10;8.30;;;;;;;1.04;56.24;99730.60;117110;1182;22927;-65
2022/01/30 07:52:49;;;;;;;17.70;8.40;;;;;;;1.07;56.14;99728.39;116856;1186;23597;-52
2022/01/30 07:55:19;;;;;;;15.40;8.60;;;;;;;1.10;56.26;99721.89;117114;1182;24150;-52
2022/01/30 07:57:48;;;;;;;14.30;7.30;;;;;;;1.12;56.10;99711.20;117106;1186;23456;-66
2022/01/30 08:00:17;;;;;;;27.00;12.00;;;;;;;1.13;55.97;99708.44;117159;1182;23551;-66
2022/01/30 08:02:45;;;;;;;25.50;12.10;;;;;;;1.13;55.91;99704.98;117337;1184;22837;-66
2022/01/30 08:05:15;;;;;;;22.00;11.00;;;;;;;1.14;55.91;99702.07;117151;1185;23484;-65
2022/01/30 08:07:43;;;;;;;21.10;11.20;;;;;;;1.14;56.29;99696.02;117375;1183;23518;-52
2022/01/30 08:10:11;;;;;;;17.20;10.50;;;;;;;1.14;56.06;99693.95;117201;1183;23628;-52
2022/01/30 08:12:40;;;;;;;16.80;8.80;;;;;;;1.14;56.20;99688.24;117380;1176;21857;-52
2022/01/30 08:15:09;;;;;;;24.00;12.30;;;;;;;1.14;55.94;99686.50;117139;1185;23484;-53
2022/01/30 08:17:39;;;;;;;20.70;11.10;;;;;;;1.14;56.00;99681.84;118315;1185;21862;-52
2022/01/30 08:20:08;;;;;;;17.60;9.50;;;;;;;1.13;56.12;99680.96;117279;1185;21845;-53
2022/01/30 08:22:50;;;;;;;18.30;10.50;;;;;;;1.14;55.92;99677.19;117190;1186;22144;-66
2022/01/30 08:25:19;;;;;;;17.20;9.30;;;;;;;1.16;56.01;99671.51;117308;1185;21847;-51
2022/01/30 08:27:48;;;;;;;18.30;10.60;;;;;;;1.17;56.28;99668.95;117335;1184;22523;-67
2022/01/30 08:30:17;;;;;;;17.30;9.60;;;;;;;1.21;56.10;99675.56;117019;1185;21903;-53
2022/01/30 08:32:49;;;;;;;14.90;8.80;;;;;;;1.24;56.26;99670.77;117167;1186;21864;-53
2022/01/30 08:35:18;;;;;;;14.60;9.00;;;;;;;1.25;56.28;99666.63;117199;1185;22890;-53
2022/01/30 08:37:47;;;;;;;17.40;9.40;;;;;;;1.26;56.10;99659.20;117315;1182;23486;-51
2022/01/30 08:40:18;;;;;;;13.30;7.80;;;;;;;1.25;56.15;99658.33;117063;1179;21891;-66
2022/01/30 08:42:47;;;;;;;16.20;8.80;;;;;;;1.25;56.45;99662.81;117320;1185;21866;-66
2022/01/30 08:45:16;;;;;;;14.90;9.20;;;;;;;1.27;56.17;99656.30;117334;1186;21868;-65
2022/01/30 08:47:47;;;;;;;12.50;8.30;;;;;;;1.31;56.26;99664.64;117305;1185;21857;-66
2022/01/30 08:50:16;;;;;;;13.10;8.10;;;;;;;1.33;56.31;99666.74;117094;1186;22893;-67
2022/01/30 08:52:45;;;;;;;16.20;9.20;;;;;;;1.35;56.30;99658.98;117084;1185;23529;-67
2022/01/30 08:55:15;;;;;;;21.20;13.20;;;;;;;1.37;56.26;99660.72;117337;1183;22951;-66
2022/01/30 08:57:44;;;;;;;23.00;14.00;;;;;;;1.37;56.36;99656.92;117233;1182;21845;-65
2022/01/30 09:00:15;;;;;;;36.90;22.00;;;;;;;1.38;56.27;99648.83;117344;1185;22946;-53
2022/01/30 09:02:43;;;;;;;31.10;17.90;;;;;;;1.38;56.38;99639.14;117279;1181;21864;-53
2022/01/30 09:05:11;;;;;;;30.20;16.80;;;;;;;1.38;56.34;99632.91;117379;1183;22408;-54
2022/01/30 09:07:40;;;;;;;13.40;9.30;;;;;;;1.40;56.30;99620.14;117224;1178;22928;-53
2022/01/30 09:10:11;;;;;;;16.40;10.00;;;;;;;1.41;56.53;99611.19;117138;1186;23451;-66
2022/01/30 09:12:39;;;;;;;17.30;10.50;;;;;;;1.47;56.49;99610.91;117234;1182;21864;-53
2022/01/30 09:15:21;;;;;;;19.60;10.90;;;;;;;1.53;56.51;99613.05;117160;1179;23507;-65
2022/01/30 09:17:52;;;;;;;21.30;11.60;;;;;;;1.58;56.50;99615.18;117175;1185;21863;-66
2022/01/30 09:20:20;;;;;;;16.40;10.10;;;;;;;1.64;56.59;99608.51;117173;1182;21864;-66
2022/01/30 09:22:51;;;;;;;26.20;14.30;;;;;;;1.69;56.49;99605.63;117218;1183;24185;-65
2022/01/30 09:25:19;;;;;;;21.30;11.80;;;;;;;1.73;56.75;99600.83;117348;1182;23458;-53
2022/01/30 09:27:47;;;;;;;21.10;11.40;;;;;;;1.76;56.66;99595.33;117161;1185;21984;-61
2022/01/30 09:30:17;;;;;;;17.80;10.20;;;;;;;1.79;56.67;99590.86;117399;1186;21868;-55
2022/01/30 09:32:45;;;;;;;21.60;11.30;;;;;;;1.83;56.71;99582.25;119345;1184;21825;-56
2022/01/30 09:35:14;;;;;;;19.30;10.80;;;;;;;1.87;56.71;99572.60;119425;1183;22317;-55
2022/01/30 09:37:42;;;;;;;20.30;11.70;;;;;;;1.88;56.66;99565.52;119427;1185;21684;-55
2022/01/30 09:40:13;;;;;;;15.90;10.00;;;;;;;1.90;56.40;99561.74;119048;1183;23080;-66
2022/01/30 09:42:45;;;;;;;19.70;11.70;;;;;;;1.90;56.54;99559.50;118986;1182;22705;-55
2022/01/30 09:45:15;;;;;;;16.20;10.40;;;;;;;1.91;56.56;99559.66;117245;1185;24186;-55
2022/01/30 09:47:43;;;;;;;18.40;9.70;;;;;;;1.94;56.80;99547.94;117309;1179;23519;-54
2022/01/30 09:50:11;;;;;;;119.40;56.40;;;;;;;1.98;56.86;99535.51;117277;1179;23461;-63
2022/01/30 09:52:41;;;;;;;116.50;46.30;;;;;;;2.01;56.70;99529.64;117322;1182;21850;-64
2022/01/30 09:55:10;;;;;;;38.10;19.30;;;;;;;2.02;56.64;99523.09;117371;1176;21853;-55
2022/01/30 09:57:41;;;;;;;23.80;13.80;;;;;;;2.02;56.76;99519.98;117288;1179;22945;-65
2022/01/30 10:00:13;;;;;;;28.30;15.20;;;;;;;2.02;56.93;99516.86;117212;1185;22626;-55
2022/01/30 10:02:43;;;;;;;;;;;;;;;2.04;56.87;99512.19;117809;1185;21838;-56
2022/01/30 10:05:13;;;;;;;26.80;14.30;;;;;;;2.06;56.71;99511.35;117363;1185;21855;-65
2022/01/30 10:07:52;;;;;;;33.00;18.30;;;;;;;2.12;56.82;99503.09;117241;1182;23581;-65
2022/01/30 10:10:24;;;;;;;41.60;18.80;;;;;;;2.16;56.65;99496.38;117316;1185;21859;-65
2022/01/30 10:13:07;;;;;;;46.20;21.50;;;;;;;2.20;56.83;99486.90;117330;1182;24159;-55
2022/01/30 10:15:52;;;;;;;51.80;23.30;;;;;;;2.25;56.83;99479.83;117296;1185;23577;-66
2022/01/30 10:18:20;;;;;;;38.90;16.50;;;;;;;2.29;56.84;99486.42;117327;1177;22927;-66
2022/01/30 10:20:49;;;;;;;50.00;20.30;;;;;;;2.34;56.87;99495.30;117338;1185;23593;-65
2022/01/30 10:23:17;;;;;;;34.10;14.80;;;;;;;2.38;56.90;99497.23;117163;1186;21821;-66
2022/01/30 10:25:51;;;;;;;22.70;11.40;;;;;;;2.43;56.92;99500.20;117167;1185;21864;-66
2022/01/30 10:28:30;;;;;;;15.00;9.10;;;;;;;2.48;56.79;99501.45;117243;1185;21976;-55
2022/01/30 10:31:06;;;;;;;30.40;13.90;;;;;;;2.55;56.93;99495.61;117249;1183;22947;-56
2022/01/30 10:34:06;;;;;;;44.50;16.70;;;;;;;2.59;56.80;99494.25;117133;1183;23476;-55
2022/01/30 10:36:35;;;;;;;46.50;17.10;;;;;;;2.61;56.76;99497.89;116680;1182;23509;-55
2022/01/30 10:39:15;;;;;;;31.30;13.60;;;;;;;2.63;56.83;99497.73;116802;1186;22145;-55
2022/01/30 10:41:53;;;;;;;23.50;11.20;;;;;;;2.65;56.81;99492.71;116706;1186;22032;-56
2022/01/30 10:44:22;;;;;;;19.00;10.40;;;;;;;2.66;56.84;99488.21;116780;1186;22950;-56
2022/01/30 10:46:53;;;;;;;34.10;14.60;;;;;;;2.68;56.89;99482.50;116804;1186;23654;-55
2022/01/30 10:49:22;;;;;;;44.70;19.80;;;;;;;2.71;57.05;99474.04;116715;1186;23687;-52
2022/01/30 10:52:00;;;;;;;52.90;21.70;;;;;;;2.74;56.99;99469.38;116728;1186;23705;-52
2022/01/30 10:54:32;;;;;;;440.90;213.90;;;;;;;2.79;56.97;99464.90;116740;1186;23779;-52
2022/01/30 10:57:10;;;;;;;244.90;126.80;;;;;;;2.82;57.07;99457.29;116728;1189;24203;-64
2022/01/30 10:59:45;;;;;;;91.50;54.90;;;;;;;2.84;56.94;99451.23;116787;1186;22335;-51
2022/01/30 11:02:16;;;;;;;78.30;36.80;;;;;;;2.86;57.06;99445.17;116681;1186;22617;-64
2022/01/30 11:04:46;;;;;;;24.10;16.20;;;;;;;2.88;57.14;99434.61;116775;1186;23604;-51
2022/01/30 11:07:19;;;;;;;18.40;12.80;;;;;;;2.90;57.17;99419.19;116733;1188;22037;-52
2022/01/30 11:10:33;;;;;;;32.90;18.70;;;;;;;2.95;57.15;99416.63;116736;1182;21863;-52
2022/01/30 11:13:08;;;;;;;26.40;16.50;;;;;;;3.02;57.17;99406.41;116873;1188;21857;-52
2022/01/30 11:15:43;;;;;;;33.70;19.50;;;;;;;3.05;57.13;99396.19;117022;1185;21870;-49
2022/01/30 11:18:12;;;;;;;25.00;17.30;;;;;;;3.09;57.06;99382.85;117070;1183;22624;-50
2022/01/30 11:20:40;;;;;;;26.00;16.40;;;;;;;3.14;57.19;99374.71;117123;1186;23601;-65
2022/01/30 11:23:09;;;;;;;25.50;16.70;;;;;;;3.18;57.19;99380.79;117246;1183;21945;-66
2022/01/30 11:25:38;;;;;;;19.00;13.00;;;;;;;3.20;57.05;99385.83;117209;1186;21857;-67
2022/01/30 11:28:10;;;;;;;20.80;14.20;;;;;;;3.21;57.09;99376.46;117178;1183;23600;-50
2022/01/30 11:30:51;;;;;;;21.50;14.20;;;;;;;3.22;56.99;99368.14;117091;1182;22685;-50
2022/01/30 11:33:20;;;;;;;20.50;14.10;;;;;;;3.22;56.93;99367.45;117393;1183;23358;-67
2022/01/30 11:35:48;;;;;;;21.00;13.90;;;;;;;3.22;57.07;99371.96;117075;1179;23648;-54
2022/01/30 11:38:17;;;;;;;16.60;11.80;;;;;;;3.21;56.96;99369.17;117104;1182;23573;-50
2022/01/30 11:41:23;;;;;;;17.40;12.00;;;;;;;3.21;56.93;99363.29;117083;1186;23690;-51
2022/01/30 11:44:17;;;;;;;16.90;11.50;;;;;;;3.20;57.01;99355.30;117335;1182;22927;-67
2022/01/30 11:46:53;;;;;;;26.90;18.00;;;;;;;3.17;56.98;99352.35;117250;1182;22030;-68
2022/01/30 11:49:21;;;;;;;28.90;18.40;;;;;;;3.10;57.04;99346.96;117188;1186;21870;-52
2022/01/30 11:51:54;;;;;;;18.00;13.90;;;;;;;3.08;57.15;99350.63;117218;1186;23593;-60
2022/01/30 11:54:42;;;;;;;16.60;12.00;;;;;;;3.09;57.11;99343.33;117122;1186;21899;-52
2022/01/30 11:57:27;;;;;;;16.20;11.00;;;;;;;3.09;57.14;99341.77;117251;1186;22659;-54
2022/01/30 11:59:56;;;;;;;16.80;11.40;;;;;;;3.09;57.05;99350.10;117212;1186;21895;-52
2022/01/30 12:02:33;;;;;;;21.30;13.10;;;;;;;3.09;57.15;99351.99;117197;1186;23448;-54
2022/01/30 12:05:04;;;;;;;20.90;12.60;;;;;;;3.10;57.22;99354.24;117308;1176;23474;-53
2022/01/30 12:07:38;;;;;;;24.10;14.90;;;;;;;3.13;57.18;99359.98;117268;1183;22619;-70
2022/01/30 12:10:15;;;;;;;19.40;12.20;;;;;;;3.17;57.23;99359.29;117268;1182;22629;-70
2022/01/30 12:12:49;;;;;;;17.10;11.70;;;;;;;3.20;57.25;99342.82;117211;1184;23631;-70
2022/01/30 12:15:39;;;;;;;17.40;11.10;;;;;;;3.23;57.31;99339.53;118437;1185;23951;-69
2022/01/30 12:18:15;;;;;;;15.50;10.50;;;;;;;3.26;57.29;99354.80;117595;1183;23535;-53
2022/01/30 12:20:56;;;;;;;16.30;11.30;;;;;;;3.30;57.39;99355.15;117342;1183;23083;-69
2022/01/30 12:23:29;;;;;;;18.00;11.50;;;;;;;3.35;57.24;99357.39;117312;1183;23632;-53
2022/01/30 12:26:03;;;;;;;17.40;11.00;;;;;;;3.38;57.34;99358.61;117307;1186;21953;-54
2022/01/30 12:28:43;;;;;;;15.20;9.40;;;;;;;3.40;57.17;99361.92;117331;1186;22941;-70